Time;durP1;ratioP1;P1;durP2;ratioP2;P2;SDS_P1;SDS_P2;PMS_P1;PMS_P2;Temp;Humidity;BMP_temperature;BMP_pressure;BME280_temperature;BME280_humidity;BME280_pressure;Samples;Min_cycle;Max_cycle;Signal;HPM_P1;HPM_P2
2022/12/03 00:01:58;;;;;;;15.52;4.13;;;;;;;;;;6244095;23;20079;-63
2022/12/03 00:04:24;;;;;;;13.48;3.70;;;;;;;;;;6244407;23;20008;-63
2022/12/03 00:06:50;;;;;;;10.90;3.20;;;;;;;;;;6244160;23;20337;-63
2022/12/03 00:09:16;;;;;;;16.40;3.83;;;;;;;;;;6244312;23;20001;-63
2022/12/03 00:11:42;;;;;;;13.50;3.28;;;;;;;;;;6246022;23;20004;-63
2022/12/03 00:14:08;;;;;;;19.38;3.78;;;;;;;;;;6246087;23;20012;-63
2022/12/03 00:16:34;;;;;;;21.20;4.47;;;;;;;;;;6246529;23;20083;-63
2022/12/03 00:19:00;;;;;;;19.02;3.90;;;;;;;;;;6246068;23;20004;-63
2022/12/03 00:21:28;;;;;;;8.63;3.38;;;;;;;;;;6246390;22;20004;-63
2022/12/03 00:23:54;;;;;;;26.10;5.32;;;;;;;;;;6246292;23;20038;-63
2022/12/03 00:26:20;;;;;;;16.85;4.65;;;;;;;;;;6246380;23;20442;-63
2022/12/03 00:28:47;;;;;;;15.68;4.22;;;;;;;;;;6246177;22;20004;-63
2022/12/03 00:31:13;;;;;;;16.65;4.32;;;;;;;;;;6246068;23;20091;-63
2022/12/03 00:33:40;;;;;;;14.75;5.28;;;;;;;;;;6246281;23;20004;-63
2022/12/03 00:36:06;;;;;;;19.48;4.63;;;;;;;;;;6245951;23;20327;-63
2022/12/03 00:38:32;;;;;;;11.27;3.90;;;;;;;;;;6246193;23;20071;-64
2022/12/03 00:40:58;;;;;;;21.80;5.78;;;;;;;;;;6246140;23;20008;-66
2022/12/03 00:43:24;;;;;;;17.95;4.05;;;;;;;;;;6246280;23;20074;-66
2022/12/03 00:45:51;;;;;;;14.25;3.72;;;;;;;;;;6246238;22;20011;-65
2022/12/03 00:48:17;;;;;;;20.23;3.95;;;;;;;;;;6245599;23;20015;-65
2022/12/03 00:50:43;;;;;;;10.07;3.97;;;;;;;;;;6246433;23;20507;-65
2022/12/03 00:53:09;;;;;;;12.43;2.97;;;;;;;;;;6245720;23;20001;-65
2022/12/03 00:55:35;;;;;;;10.23;2.58;;;;;;;;;;6246431;23;20050;-65
2022/12/03 00:58:01;;;;;;;8.80;3.53;;;;;;;;;;6246052;23;20014;-65
2022/12/03 01:00:27;;;;;;;6.97;3.00;;;;;;;;;;6246001;23;20012;-65
2022/12/03 01:02:53;;;;;;;12.32;2.78;;;;;;;;;;6245465;23;20004;-65
2022/12/03 01:05:21;;;;;;;10.23;2.78;;;;;;;;;;6245808;22;20016;-65
2022/12/03 01:07:47;;;;;;;6.78;2.63;;;;;;;;;;6245905;23;20000;-65
2022/12/03 01:10:13;;;;;;;13.68;2.78;;;;;;;;;;6245789;23;20049;-65
2022/12/03 01:12:39;;;;;;;5.18;2.50;;;;;;;;;;6246103;23;20015;-65
2022/12/03 01:15:06;;;;;;;6.75;2.33;;;;;;;;;;6245611;23;20457;-65
2022/12/03 01:17:32;;;;;;;6.90;2.92;;;;;;;;;;6245594;23;20007;-64
2022/12/03 01:20:00;;;;;;;10.73;2.85;;;;;;;;;;6245783;22;20438;-64
2022/12/03 01:22:26;;;;;;;11.55;2.90;;;;;;;;;;6245431;22;20035;-65
2022/12/03 01:24:52;;;;;;;8.98;2.72;;;;;;;;;;6245736;23;20079;-64
2022/12/03 01:27:19;;;;;;;7.47;2.28;;;;;;;;;;6245504;23;19996;-64
2022/12/03 01:29:45;;;;;;;6.47;2.65;;;;;;;;;;6245808;23;20095;-64
2022/12/03 01:32:18;;;;;;;8.02;2.50;;;;;;;;;;6245364;23;20438;-64
2022/12/03 01:34:45;;;;;;;10.80;3.05;;;;;;;;;;6245960;22;20000;-64
2022/12/03 01:37:11;;;;;;;10.13;1.73;;;;;;;;;;6245331;23;20005;-65
2022/12/03 01:39:37;;;;;;;6.95;1.77;;;;;;;;;;6245526;23;20007;-66
2022/12/03 01:42:04;;;;;;;6.20;2.10;;;;;;;;;;6245530;23;20004;-66
2022/12/03 01:44:33;;;;;;;5.93;1.73;;;;;;;;;;6245211;23;20083;-66
2022/12/03 01:47:00;;;;;;;7.82;2.03;;;;;;;;;;6245296;23;20011;-65
2022/12/03 01:49:28;;;;;;;8.07;2.40;;;;;;;;;;6245177;23;20027;-65
2022/12/03 01:51:54;;;;;;;10.05;2.72;;;;;;;;;;6245626;23;20015;-65
2022/12/03 01:54:24;;;;;;;8.05;2.08;;;;;;;;;;6245290;23;20001;-65
2022/12/03 01:56:50;;;;;;;7.57;1.75;;;;;;;;;;6245545;23;20023;-66
2022/12/03 01:59:18;;;;;;;11.13;2.08;;;;;;;;;;6245241;23;20004;-66
2022/12/03 02:01:44;;;;;;;14.52;2.30;;;;;;;;;;6245205;23;20008;-66
2022/12/03 02:04:12;;;;;;;11.30;2.50;;;;;;;;;;6245507;23;20004;-66
2022/12/03 02:06:38;;;;;;;10.25;2.53;;;;;;;;;;6245530;22;20012;-66
2022/12/03 02:09:07;;;;;;;11.57;2.60;;;;;;;;;;6245394;23;20012;-65
2022/12/03 02:11:35;;;;;;;9.65;1.92;;;;;;;;;;6245206;23;20035;-65
2022/12/03 02:14:03;;;;;;;12.68;2.05;;;;;;;;;;6245300;23;20012;-65
2022/12/03 02:16:29;;;;;;;10.45;2.20;;;;;;;;;;6244584;23;20000;-65
2022/12/03 02:18:56;;;;;;;8.10;2.20;;;;;;;;;;6245275;23;20008;-65
2022/12/03 02:21:41;;;;;;;8.35;2.63;;;;;;;;;;6245021;23;20015;-65
2022/12/03 02:24:27;;;;;;;13.63;2.83;;;;;;;;;;6245457;23;20035;-65
2022/12/03 02:26:53;;;;;;;10.45;2.78;;;;;;;;;;6123230;23;20429;-65
2022/12/03 02:29:19;;;;;;;17.02;3.60;;;;;;;;;;6122648;23;20010;-65
2022/12/03 02:31:45;;;;;;;11.20;2.75;;;;;;;;;;6122728;23;20014;-65
2022/12/03 02:34:31;;;;;;;14.32;3.45;;;;;;;;;;6122760;23;20006;-65
2022/12/03 02:36:58;;;;;;;13.15;3.25;;;;;;;;;;6122910;23;20006;-65
2022/12/03 02:39:24;;;;;;;12.38;3.20;;;;;;;;;;6122691;23;20523;-65
2022/12/03 02:44:35;;;;;;;15.43;3.10;;;;;;;;;;6122288;23;20069;-65
2022/12/03 02:47:01;;;;;;;17.83;3.80;;;;;;;;;;6123056;23;20044;-64
2022/12/03 02:49:27;;;;;;;12.80;3.22;;;;;;;;;;6122585;23;20463;-65
2022/12/03 02:51:53;;;;;;;15.77;5.40;;;;;;;;;;6122831;23;20006;-65
2022/12/03 02:54:19;;;;;;;12.38;2.80;;;;;;;;;;6122714;23;20010;-64
2022/12/03 02:56:45;;;;;;;11.25;3.22;;;;;;;;;;6122926;23;20002;-64
2022/12/03 02:59:12;;;;;;;9.38;2.72;;;;;;;;;;6122431;23;20471;-65
2022/12/03 03:01:38;;;;;;;12.95;3.80;;;;;;;;;;6122385;23;20013;-65
2022/12/03 03:04:04;;;;;;;15.93;4.05;;;;;;;;;;6190156;23;20401;-64
2022/12/03 03:06:30;;;;;;;10.48;2.90;;;;;;;;;;6244618;23;20047;-64
2022/12/03 03:08:57;;;;;;;21.48;6.15;;;;;;;;;;6244983;23;20008;-65
2022/12/03 03:11:23;;;;;;;11.52;3.08;;;;;;;;;;6244689;23;20053;-65
2022/12/03 03:13:49;;;;;;;10.82;3.67;;;;;;;;;;6244037;23;20012;-65
2022/12/03 03:16:16;;;;;;;14.45;3.60;;;;;;;;;;6244818;23;20000;-64
2022/12/03 03:18:42;;;;;;;14.90;3.10;;;;;;;;;;6244935;23;20073;-64
2022/12/03 03:21:08;;;;;;;14.93;3.03;;;;;;;;;;6244697;23;20008;-64
2022/12/03 03:23:34;;;;;;;11.82;4.40;;;;;;;;;;6244380;23;20062;-64
2022/12/03 03:26:02;;;;;;;12.35;3.40;;;;;;;;;;6244870;23;20023;-64
2022/12/03 03:28:29;;;;;;;9.43;3.00;;;;;;;;;;6244062;23;20446;-64
2022/12/03 03:30:55;;;;;;;11.93;3.13;;;;;;;;;;6244794;23;20036;-64
2022/12/03 03:33:21;;;;;;;14.40;3.58;;;;;;;;;;6244416;23;20023;-64
2022/12/03 03:35:48;;;;;;;11.35;3.05;;;;;;;;;;6244592;23;20003;-64
2022/12/03 03:38:15;;;;;;;10.15;3.75;;;;;;;;;;6244665;23;20091;-64
2022/12/03 03:40:41;;;;;;;11.30;3.50;;;;;;;;;;6244118;23;20438;-64
2022/12/03 03:43:07;;;;;;;10.60;3.10;;;;;;;;;;6244106;23;20008;-64
2022/12/03 03:45:34;;;;;;;11.57;3.88;;;;;;;;;;6244210;23;20008;-65
2022/12/03 03:48:00;;;;;;;10.07;4.35;;;;;;;;;;6244431;23;20008;-64
2022/12/03 03:50:27;;;;;;;12.25;3.75;;;;;;;;;;6244416;23;20050;-65
2022/12/03 03:52:54;;;;;;;7.68;3.72;;;;;;;;;;6244568;23;20004;-65
2022/12/03 03:55:20;;;;;;;12.05;4.05;;;;;;;;;;6244676;23;20001;-65
2022/12/03 03:57:47;;;;;;;15.63;4.57;;;;;;;;;;6243940;23;20004;-65
2022/12/03 04:00:13;;;;;;;13.25;4.75;;;;;;;;;;6244762;23;20000;-65
2022/12/03 04:02:40;;;;;;;22.15;9.13;;;;;;;;;;6244284;23;20441;-65
2022/12/03 04:05:06;;;;;;;28.90;9.65;;;;;;;;;;6244474;23;19996;-65
2022/12/03 04:07:33;;;;;;;28.52;12.82;;;;;;;;;;6244184;23;20338;-65
2022/12/03 04:09:59;;;;;;;35.45;14.15;;;;;;;;;;6244641;23;20024;-65
2022/12/03 04:15:10;;;;;;;42.85;15.63;;;;;;;;;;6244291;23;20004;-65
2022/12/03 04:17:36;;;;;;;46.67;19.88;;;;;;;;;;6244178;23;20023;-65
2022/12/03 04:20:02;;;;;;;46.70;17.88;;;;;;;;;;6244336;23;20008;-65
2022/12/03 04:22:40;;;;;;;38.53;17.35;;;;;;;;;;6244285;23;20517;-65
2022/12/03 04:30:37;;;;;;;42.50;17.90;;;;;;;;;;6243842;23;20007;-65
2022/12/03 04:35:48;;;;;;;54.47;18.27;;;;;;;;;;6243958;23;20000;-64
2022/12/03 04:38:15;;;;;;;42.08;16.65;;;;;;;;;;6244395;23;20342;-65
2022/12/03 04:41:00;;;;;;;43.50;15.88;;;;;;;;;;6244324;23;20008;-64
2022/12/03 04:43:27;;;;;;;45.05;17.40;;;;;;;;;;6244306;23;20008;-64
2022/12/03 04:45:53;;;;;;;40.42;16.45;;;;;;;;;;6244474;22;20008;-64
2022/12/03 04:48:19;;;;;;;39.70;15.55;;;;;;;;;;6244243;23;20008;-64
2022/12/03 04:50:46;;;;;;;29.27;14.32;;;;;;;;;;6244074;23;20003;-64
2022/12/03 04:53:12;;;;;;;36.47;13.25;;;;;;;;;;6244150;23;20031;-64
2022/12/03 04:55:38;;;;;;;37.58;12.30;;;;;;;;;;6243568;23;20067;-64
2022/12/03 04:58:04;;;;;;;30.23;11.27;;;;;;;;;;6246163;23;20035;-64
2022/12/03 05:00:30;;;;;;;33.70;11.07;;;;;;;;;;6246060;23;20080;-64
2022/12/03 05:02:56;;;;;;;21.23;9.77;;;;;;;;;;6246053;23;20051;-64
2022/12/03 05:05:22;;;;;;;20.33;8.60;;;;;;;;;;6246559;23;20083;-64
2022/12/03 05:07:48;;;;;;;22.58;8.13;;;;;;;;;;6245550;23;20085;-64
2022/12/03 05:10:14;;;;;;;21.02;7.97;;;;;;;;;;6245560;23;20004;-64
2022/12/03 05:12:40;;;;;;;18.08;7.40;;;;;;;;;;6245681;23;20043;-64
2022/12/03 05:15:07;;;;;;;24.35;7.75;;;;;;;;;;6245952;23;20000;-64
2022/12/03 05:17:33;;;;;;;18.52;6.85;;;;;;;;;;6245661;23;20000;-64
2022/12/03 05:22:43;;;;;;;24.85;7.22;;;;;;;;;;6245263;23;20046;-64
2022/12/03 05:25:10;;;;;;;16.42;6.43;;;;;;;;;;6245551;23;20438;-64
2022/12/03 05:27:36;;;;;;;17.90;6.65;;;;;;;;;;6245482;23;20008;-64
2022/12/03 05:30:02;;;;;;;15.60;6.53;;;;;;;;;;6245829;23;20007;-64
2022/12/03 05:32:28;;;;;;;19.05;6.15;;;;;;;;;;6245829;23;20010;-64
2022/12/03 05:34:54;;;;;;;15.05;5.50;;;;;;;;;;6245686;23;20430;-64
2022/12/03 05:37:20;;;;;;;15.10;6.22;;;;;;;;;;6245891;23;20075;-64
2022/12/03 05:39:46;;;;;;;16.67;6.60;;;;;;;;;;6244463;23;20083;-64
2022/12/03 05:44:57;;;;;;;16.13;6.10;;;;;;;;;;6245052;23;20341;-64
2022/12/03 05:47:23;;;;;;;15.88;5.90;;;;;;;;;;6245754;23;20007;-64
2022/12/03 05:49:49;;;;;;;14.95;6.55;;;;;;;;;;6245142;23;20011;-64
2022/12/03 05:52:15;;;;;;;16.83;6.93;;;;;;;;;;6245752;23;20465;-64
2022/12/03 05:54:41;;;;;;;17.80;6.50;;;;;;;;;;6245273;23;20008;-64
2022/12/03 05:57:08;;;;;;;15.40;5.82;;;;;;;;;;6245308;23;20024;-64
2022/12/03 05:59:34;;;;;;;17.67;6.78;;;;;;;;;;6245919;23;20004;-64
2022/12/03 06:02:00;;;;;;;14.02;6.65;;;;;;;;;;6245344;23;20008;-64
2022/12/03 06:04:26;;;;;;;14.23;5.53;;;;;;;;;;6245269;23;20008;-64
2022/12/03 06:06:52;;;;;;;11.25;5.95;;;;;;;;;;6245121;23;20008;-64
2022/12/03 06:09:18;;;;;;;15.35;6.05;;;;;;;;;;6244473;23;20319;-64
2022/12/03 06:11:44;;;;;;;21.70;6.78;;;;;;;;;;6243748;23;20071;-64
2022/12/03 06:14:10;;;;;;;13.98;5.95;;;;;;;;;;6245571;23;20070;-64
2022/12/03 06:16:36;;;;;;;17.92;6.55;;;;;;;;;;6245156;23;20004;-64
2022/12/03 06:19:02;;;;;;;13.45;6.10;;;;;;;;;;6245180;23;20008;-64
2022/12/03 06:21:28;;;;;;;17.60;6.88;;;;;;;;;;6244637;23;20075;-64
2022/12/03 06:23:54;;;;;;;18.65;6.28;;;;;;;;;;6243834;23;20038;-64
2022/12/03 06:26:21;;;;;;;21.45;6.65;;;;;;;;;;6244738;23;20003;-64
2022/12/03 06:28:48;;;;;;;17.10;6.47;;;;;;;;;;6244846;23;20008;-64
2022/12/03 06:31:14;;;;;;;26.60;8.13;;;;;;;;;;6243492;23;20379;-64
2022/12/03 06:33:40;;;;;;;16.30;6.75;;;;;;;;;;6244089;23;20036;-64
2022/12/03 06:36:06;;;;;;;19.02;7.57;;;;;;;;;;6243452;23;20024;-64
2022/12/03 06:38:32;;;;;;;20.13;7.50;;;;;;;;;;6243806;23;20016;-64
2022/12/03 06:40:58;;;;;;;19.30;7.10;;;;;;;;;;6243686;23;20069;-63
2022/12/03 06:43:25;;;;;;;23.20;7.45;;;;;;;;;;6243880;23;20274;-64
2022/12/03 06:45:51;;;;;;;20.55;6.15;;;;;;;;;;6243677;23;20434;-64
2022/12/03 06:48:17;;;;;;;18.17;7.10;;;;;;;;;;6243703;23;20008;-64
2022/12/03 06:50:43;;;;;;;21.60;8.02;;;;;;;;;;6243852;23;20366;-64
2022/12/03 06:53:09;;;;;;;20.10;7.13;;;;;;;;;;6243612;23;20000;-64
2022/12/03 06:55:35;;;;;;;24.30;8.35;;;;;;;;;;6243630;23;20533;-64
2022/12/03 06:58:01;;;;;;;20.33;7.82;;;;;;;;;;6243483;23;20012;-64
2022/12/03 07:00:27;;;;;;;23.05;8.25;;;;;;;;;;6243275;23;20055;-64
2022/12/03 07:02:53;;;;;;;23.85;8.52;;;;;;;;;;6244056;23;20015;-63
2022/12/03 07:05:19;;;;;;;18.17;7.53;;;;;;;;;;6243043;23;20350;-64
2022/12/03 07:07:50;;;;;;;19.13;7.72;;;;;;;;;;6242593;23;20027;-64
2022/12/03 07:10:18;;;;;;;19.42;9.05;;;;;;;;;;6241056;23;20016;-66
2022/12/03 07:12:44;;;;;;;20.40;7.57;;;;;;;;;;6241959;23;20089;-64
2022/12/03 07:15:10;;;;;;;27.58;10.35;;;;;;;;;;6242102;23;20004;-64
2022/12/03 07:17:36;;;;;;;26.73;9.95;;;;;;;;;;6242995;23;20456;-64
2022/12/03 07:20:17;;;;;;;34.33;10.35;;;;;;;;;;6149700;23;20183;-64
2022/12/03 07:22:44;;;;;;;24.58;10.15;;;;;;;;;;6150345;23;20096;-64
2022/12/03 07:25:10;;;;;;;34.25;11.43;;;;;;;;;;6150899;23;20395;-64
2022/12/03 07:27:36;;;;;;;30.75;12.10;;;;;;;;;;6151727;23;20013;-65
2022/12/03 07:30:03;;;;;;;38.80;13.80;;;;;;;;;;6151886;23;20037;-64
2022/12/03 07:32:29;;;;;;;33.13;13.10;;;;;;;;;;6151556;23;20006;-64
2022/12/03 07:34:55;;;;;;;37.00;13.30;;;;;;;;;;6150360;23;20019;-64
2022/12/03 07:37:21;;;;;;;33.33;13.60;;;;;;;;;;6152114;23;20216;-64
2022/12/03 07:39:47;;;;;;;41.20;13.30;;;;;;;;;;6152173;23;20013;-64
2022/12/03 07:42:13;;;;;;;29.65;11.73;;;;;;;;;;6151553;23;20014;-64
2022/12/03 07:44:39;;;;;;;33.05;14.23;;;;;;;;;;6151641;23;20511;-63
2022/12/03 07:47:06;;;;;;;40.78;12.95;;;;;;;;;;6151842;23;20088;-63
2022/12/03 07:49:32;;;;;;;36.75;14.10;;;;;;;;;;6151797;23;20020;-64
2022/12/03 07:51:58;;;;;;;37.10;15.20;;;;;;;;;;6150995;23;20013;-64
2022/12/03 07:54:24;;;;;;;37.88;13.88;;;;;;;;;;6150351;23;20001;-64
2022/12/03 07:56:51;;;;;;;33.10;14.23;;;;;;;;;;6173196;23;20397;-64
2022/12/03 07:59:17;;;;;;;36.42;14.23;;;;;;;;;;6243681;22;20058;-64
2022/12/03 08:01:44;;;;;;;44.75;15.30;;;;;;;;;;6244946;23;20004;-64
2022/12/03 08:04:13;;;;;;;36.80;14.68;;;;;;;;;;6243775;23;20000;-64
2022/12/03 08:06:40;;;;;;;33.97;15.63;;;;;;;;;;6244955;22;20008;-63
2022/12/03 08:09:06;;;;;;;35.47;13.82;;;;;;;;;;6244183;22;20004;-64
2022/12/03 08:11:33;;;;;;;44.90;16.20;;;;;;;;;;6245018;23;20008;-64
2022/12/03 08:13:59;;;;;;;42.42;15.88;;;;;;;;;;6244845;23;20004;-64
2022/12/03 08:16:25;;;;;;;34.63;13.75;;;;;;;;;;6244210;23;20058;-63
2022/12/03 08:18:53;;;;;;;35.90;14.60;;;;;;;;;;6244780;23;20012;-64
2022/12/03 08:21:20;;;;;;;39.90;15.27;;;;;;;;;;6244749;23;20019;-64
2022/12/03 08:23:47;;;;;;;41.38;15.13;;;;;;;;;;6244774;23;20004;-64
2022/12/03 08:26:27;;;;;;;40.40;15.98;;;;;;;;;;6244761;23;20030;-64
2022/12/03 08:28:53;;;;;;;41.72;14.80;;;;;;;;;;6244601;23;20009;-64
2022/12/03 08:31:26;;;;;;;37.58;14.30;;;;;;;;;;6244732;23;20004;-64
2022/12/03 08:33:53;;;;;;;34.42;13.85;;;;;;;;;;6246713;23;20358;-64
2022/12/03 08:36:24;;;;;;;39.17;13.88;;;;;;;;;;6246320;23;20046;-64
2022/12/03 08:38:52;;;;;;;47.15;15.30;;;;;;;;;;6247142;23;20008;-66
2022/12/03 08:42:40;;;;;;;34.83;13.57;;;;;;;;;;6246654;23;20079;-66
2022/12/03 08:44:17;;;;;;;36.67;13.68;;;;;;;;;;6246849;23;20019;-66
2022/12/03 08:46:44;;;;;;;30.73;13.85;;;;;;;;;;6246224;23;20331;-67
2022/12/03 08:49:10;;;;;;;39.78;14.40;;;;;;;;;;6246797;23;20005;-67
2022/12/03 08:51:36;;;;;;;47.03;15.32;;;;;;;;;;6244386;23;20485;-67
2022/12/03 08:54:11;;;;;;;31.65;13.02;;;;;;;;;;6245173;23;20000;-67
2022/12/03 08:56:38;;;;;;;31.77;14.25;;;;;;;;;;6244537;22;20082;-67
2022/12/03 08:59:23;;;;;;;29.65;13.02;;;;;;;;;;6245608;23;20008;-67
2022/12/03 09:01:50;;;;;;;31.98;13.30;;;;;;;;;;6244798;23;20062;-68
2022/12/03 09:04:16;;;;;;;33.10;12.98;;;;;;;;;;6245949;22;20071;-68
2022/12/03 09:06:42;;;;;;;30.13;11.90;;;;;;;;;;6245228;23;20492;-67
2022/12/03 09:09:08;;;;;;;33.08;11.73;;;;;;;;;;6245699;23;20048;-67
2022/12/03 09:11:34;;;;;;;29.52;11.38;;;;;;;;;;6245366;23;20083;-67
2022/12/03 09:14:00;;;;;;;31.52;10.65;;;;;;;;;;6244924;23;20011;-66
2022/12/03 09:16:27;;;;;;;27.65;12.32;;;;;;;;;;6245012;23;20004;-67
2022/12/03 09:18:53;;;;;;;27.45;11.82;;;;;;;;;;6245369;23;20000;-66
2022/12/03 09:21:19;;;;;;;29.52;11.70;;;;;;;;;;6243921;23;20065;-66
2022/12/03 09:23:45;;;;;;;28.65;10.93;;;;;;;;;;6244072;23;20011;-66
2022/12/03 09:26:11;;;;;;;25.30;9.65;;;;;;;;;;6245152;23;20354;-66
2022/12/03 09:28:37;;;;;;;26.73;11.77;;;;;;;;;;6243755;23;20083;-66
2022/12/03 09:31:03;;;;;;;32.08;12.88;;;;;;;;;;6244687;23;20509;-66
2022/12/03 09:33:31;;;;;;;52.25;16.70;;;;;;;;;;6245002;23;20000;-66
2022/12/03 09:35:58;;;;;;;52.92;17.98;;;;;;;;;;6245357;22;20004;-66
2022/12/03 09:38:24;;;;;;;57.60;21.20;;;;;;;;;;6243479;23;20557;-66
2022/12/03 09:40:50;;;;;;;53.92;20.30;;;;;;;;;;6244628;23;20008;-66
2022/12/03 09:43:17;;;;;;;60.00;21.95;;;;;;;;;;6244424;23;20017;-66
2022/12/03 09:45:47;;;;;;;56.88;21.70;;;;;;;;;;6244205;23;20004;-66
2022/12/03 09:48:17;;;;;;;59.30;21.33;;;;;;;;;;6245572;23;20346;-66
2022/12/03 09:50:44;;;;;;;54.88;20.52;;;;;;;;;;6245293;23;20083;-64
2022/12/03 09:53:12;;;;;;;56.97;20.65;;;;;;;;;;6245667;23;20308;-64
2022/12/03 09:55:39;;;;;;;49.83;19.88;;;;;;;;;;6244429;23;20011;-64
2022/12/03 09:58:12;;;;;;;57.20;21.17;;;;;;;;;;6245295;23;20353;-64
2022/12/03 10:00:38;;;;;;;60.83;21.67;;;;;;;;;;6244626;23;20027;-64
2022/12/03 10:03:06;;;;;;;63.25;23.17;;;;;;;;;;6244947;23;20445;-64
2022/12/03 10:05:32;;;;;;;62.45;23.92;;;;;;;;;;6245200;23;20004;-64
2022/12/03 10:08:03;;;;;;;55.75;22.05;;;;;;;;;;6244929;23;20323;-64
2022/12/03 10:10:29;;;;;;;62.35;24.05;;;;;;;;;;6245135;23;20513;-64
2022/12/03 10:12:56;;;;;;;54.72;22.83;;;;;;;;;;6244903;23;20075;-64
2022/12/03 10:15:22;;;;;;;59.42;22.10;;;;;;;;;;6244676;23;20000;-64
2022/12/03 10:17:50;;;;;;;65.05;23.42;;;;;;;;;;6242964;22;20003;-64
2022/12/03 10:20:17;;;;;;;62.42;22.17;;;;;;;;;;6243733;23;20065;-64
2022/12/03 10:22:47;;;;;;;58.55;22.58;;;;;;;;;;6243217;22;20001;-64
2022/12/03 10:25:18;;;;;;;66.88;25.70;;;;;;;;;;6243518;23;20004;-64
2022/12/03 10:27:55;;;;;;;63.45;24.95;;;;;;;;;;6243389;23;20004;-64
2022/12/03 10:30:22;;;;;;;66.15;24.92;;;;;;;;;;6241898;23;20018;-64
2022/12/03 10:32:50;;;;;;;62.83;24.63;;;;;;;;;;6243310;22;19996;-64
2022/12/03 10:35:18;;;;;;;64.93;24.77;;;;;;;;;;6243544;23;20016;-64
2022/12/03 10:38:01;;;;;;;60.47;23.67;;;;;;;;;;6242945;22;20000;-64
2022/12/03 10:40:31;;;;;;;58.35;23.10;;;;;;;;;;6243360;23;20073;-64
2022/12/03 10:43:15;;;;;;;65.18;26.15;;;;;;;;;;6243024;22;20035;-64
2022/12/03 10:45:42;;;;;;;63.42;25.10;;;;;;;;;;6243190;23;20004;-64
2022/12/03 10:48:18;;;;;;;70.68;27.92;;;;;;;;;;6243312;23;20334;-64
2022/12/03 10:50:53;;;;;;;76.57;30.83;;;;;;;;;;6243327;22;20000;-64
2022/12/03 10:53:21;;;;;;;62.72;25.25;;;;;;;;;;6243177;23;20004;-64
2022/12/03 10:55:48;;;;;;;62.75;24.98;;;;;;;;;;6242636;23;20000;-64
2022/12/03 10:58:30;;;;;;;76.50;26.33;;;;;;;;;;6243083;23;20019;-64
2022/12/03 11:00:57;;;;;;;67.15;24.63;;;;;;;;;;6242227;23;20014;-64
2022/12/03 11:03:25;;;;;;;64.20;24.35;;;;;;;;;;6243527;23;20000;-64
2022/12/03 11:05:51;;;;;;;62.63;25.80;;;;;;;;;;6242793;23;20083;-64
2022/12/03 11:08:19;;;;;;;60.30;24.90;;;;;;;;;;6242923;23;20004;-64
2022/12/03 11:10:46;;;;;;;68.20;25.48;;;;;;;;;;6241193;23;20362;-64
2022/12/03 11:13:38;;;;;;;56.97;24.58;;;;;;;;;;6241169;23;20040;-64
2022/12/03 11:16:07;;;;;;;56.28;23.85;;;;;;;;;;6237228;23;20008;-64
2022/12/03 11:18:35;;;;;;;63.00;26.33;;;;;;;;;;6242504;22;20007;-64
2022/12/03 11:21:05;;;;;;;58.22;24.42;;;;;;;;;;6242444;23;20014;-64
2022/12/03 11:23:46;;;;;;;58.65;24.67;;;;;;;;;;6242279;23;20054;-64
2022/12/03 11:26:32;;;;;;;57.65;23.45;;;;;;;;;;6242654;23;20009;-64
2022/12/03 11:28:59;;;;;;;57.00;23.48;;;;;;;;;;6120615;23;20014;-64
2022/12/03 11:31:34;;;;;;;53.05;23.35;;;;;;;;;;6120810;23;20005;-64
2022/12/03 11:34:16;;;;;;;57.03;24.33;;;;;;;;;;6120657;23;20017;-64
2022/12/03 11:37:00;;;;;;;61.78;26.00;;;;;;;;;;6121094;23;20330;-64
2022/12/03 11:39:44;;;;;;;62.92;25.10;;;;;;;;;;6120680;23;20096;-64
2022/12/03 11:42:24;;;;;;;52.15;23.98;;;;;;;;;;6119787;23;20038;-64
2022/12/03 11:45:02;;;;;;;63.92;25.23;;;;;;;;;;6121095;23;20093;-64
2022/12/03 11:47:29;;;;;;;65.15;26.45;;;;;;;;;;6119974;23;20448;-64
2022/12/03 11:49:55;;;;;;;60.90;25.02;;;;;;;;;;6119391;23;20018;-67
2022/12/03 11:52:23;;;;;;;54.38;25.40;;;;;;;;;;6120290;23;20010;-64
2022/12/03 11:54:51;;;;;;;56.13;24.08;;;;;;;;;;6120914;23;20002;-63
2022/12/03 11:57:26;;;;;;;54.78;25.02;;;;;;;;;;6119110;23;20013;-65
2022/12/03 11:59:59;;;;;;;59.10;25.13;;;;;;;;;;6119512;23;20017;-65
2022/12/03 12:02:26;;;;;;;54.08;22.42;;;;;;;;;;6119359;23;20049;-65
2022/12/03 12:04:52;;;;;;;56.78;24.48;;;;;;;;;;6119992;23;20014;-64
2022/12/03 12:07:34;;;;;;;57.53;25.52;;;;;;;;;;6241071;23;20008;-64
2022/12/03 12:10:00;;;;;;;56.60;25.13;;;;;;;;;;6241129;23;20406;-64
2022/12/03 12:12:30;;;;;;;56.97;26.42;;;;;;;;;;6241355;22;20012;-64
2022/12/03 12:14:57;;;;;;;61.75;24.73;;;;;;;;;;6242247;22;20431;-65
2022/12/03 12:17:30;;;;;;;58.90;25.83;;;;;;;;;;6242006;23;20450;-64
2022/12/03 12:20:12;;;;;;;61.83;26.65;;;;;;;;;;6242026;23;20077;-64
2022/12/03 12:22:38;;;;;;;55.85;24.45;;;;;;;;;;6242545;23;20477;-64
2022/12/03 12:25:24;;;;;;;56.80;24.58;;;;;;;;;;6242215;23;20004;-64
2022/12/03 12:27:52;;;;;;;63.75;26.17;;;;;;;;;;6222929;22;20008;-64
2022/12/03 12:30:20;;;;;;;56.88;23.60;;;;;;;;;;6242301;22;20000;-64
2022/12/03 12:32:47;;;;;;;58.20;25.13;;;;;;;;;;6243043;22;20000;-64
2022/12/03 12:35:19;;;;;;;55.42;24.20;;;;;;;;;;6242871;23;20043;-64
2022/12/03 12:37:52;;;;;;;61.17;27.00;;;;;;;;;;6242298;23;20011;-65
2022/12/03 12:40:19;;;;;;;57.10;25.40;;;;;;;;;;6240509;22;20442;-65
2022/12/03 12:42:49;;;;;;;51.58;24.65;;;;;;;;;;6241928;23;20000;-65
2022/12/03 12:45:19;;;;;;;61.15;28.02;;;;;;;;;;6240906;23;20027;-65
2022/12/03 12:48:04;;;;;;;65.07;27.08;;;;;;;;;;6242053;23;20066;-65
2022/12/03 12:50:32;;;;;;;59.58;25.95;;;;;;;;;;6241209;23;20067;-65
2022/12/03 12:53:02;;;;;;;58.25;24.55;;;;;;;;;;6242042;22;20004;-65
2022/12/03 12:55:28;;;;;;;51.13;22.98;;;;;;;;;;6241388;23;20066;-65
2022/12/03 12:57:59;;;;;;;54.35;24.73;;;;;;;;;;6241894;23;20008;-65
2022/12/03 13:00:25;;;;;;;56.10;24.02;;;;;;;;;;6241144;23;20066;-66
2022/12/03 13:02:55;;;;;;;47.08;22.10;;;;;;;;;;6241202;23;20393;-65
2022/12/03 13:05:21;;;;;;;55.63;24.25;;;;;;;;;;6241243;23;20012;-64
2022/12/03 13:07:47;;;;;;;51.50;23.23;;;;;;;;;;6240560;23;20036;-64
2022/12/03 13:10:19;;;;;;;51.10;23.42;;;;;;;;;;6241261;23;20008;-64
2022/12/03 13:12:46;;;;;;;52.85;22.67;;;;;;;;;;6241042;23;20086;-64
2022/12/03 13:15:38;;;;;;;55.65;23.60;;;;;;;;;;6241377;23;20007;-64
2022/12/03 13:18:19;;;;;;;49.75;23.05;;;;;;;;;;6237144;23;20015;-64
2022/12/03 13:20:45;;;;;;;54.75;24.00;;;;;;;;;;6241665;23;20004;-64
2022/12/03 13:23:24;;;;;;;48.75;22.40;;;;;;;;;;6242808;23;20007;-64
2022/12/03 13:25:51;;;;;;;49.05;21.48;;;;;;;;;;6242747;23;20464;-64
2022/12/03 13:28:20;;;;;;;50.20;23.38;;;;;;;;;;6242957;23;20023;-64
2022/12/03 13:30:46;;;;;;;51.97;22.23;;;;;;;;;;6241064;23;20039;-64
2022/12/03 13:33:15;;;;;;;45.17;22.38;;;;;;;;;;6242924;23;20007;-64
2022/12/03 13:35:42;;;;;;;46.00;22.23;;;;;;;;;;6242850;22;20000;-64
2022/12/03 13:38:17;;;;;;;46.20;22.25;;;;;;;;;;6243182;22;20435;-64
2022/12/03 13:40:43;;;;;;;46.15;22.25;;;;;;;;;;6242962;23;20385;-64
2022/12/03 13:43:11;;;;;;;53.30;24.38;;;;;;;;;;6243947;23;20080;-64
2022/12/03 13:45:43;;;;;;;49.50;22.98;;;;;;;;;;6240648;23;20000;-64
2022/12/03 13:48:23;;;;;;;51.75;24.00;;;;;;;;;;6243493;22;20004;-65
2022/12/03 13:50:51;;;;;;;45.33;21.20;;;;;;;;;;6243440;23;20062;-65
2022/12/03 13:53:17;;;;;;;42.33;20.95;;;;;;;;;;6242721;23;20103;-65
2022/12/03 13:55:44;;;;;;;47.75;22.20;;;;;;;;;;6243404;23;20450;-65
2022/12/03 13:58:10;;;;;;;51.13;22.65;;;;;;;;;;6243689;23;20329;-65
2022/12/03 14:00:36;;;;;;;49.45;22.77;;;;;;;;;;6243318;23;20012;-65
2022/12/03 14:03:02;;;;;;;50.47;22.65;;;;;;;;;;6242951;23;20000;-65
2022/12/03 14:05:28;;;;;;;52.20;23.38;;;;;;;;;;6243550;23;20035;-65
2022/12/03 14:07:57;;;;;;;45.03;21.65;;;;;;;;;;6242985;23;20003;-65
2022/12/03 14:10:23;;;;;;;50.63;22.27;;;;;;;;;;6242832;22;20502;-65
2022/12/03 14:12:49;;;;;;;46.95;22.60;;;;;;;;;;6243212;23;20012;-65
2022/12/03 14:15:16;;;;;;;55.63;23.48;;;;;;;;;;6243438;23;20527;-65
2022/12/03 14:17:42;;;;;;;53.58;23.70;;;;;;;;;;6243645;23;20077;-65
2022/12/03 14:20:08;;;;;;;46.90;21.30;;;;;;;;;;6243395;23;20138;-65
2022/12/03 14:22:36;;;;;;;54.72;25.90;;;;;;;;;;6243306;22;20008;-65
2022/12/03 14:25:03;;;;;;;57.03;25.10;;;;;;;;;;6243671;22;20019;-65
2022/12/03 14:27:29;;;;;;;45.80;22.77;;;;;;;;;;6243765;23;20428;-65
2022/12/03 14:29:55;;;;;;;50.28;24.08;;;;;;;;;;6241829;23;20020;-65
2022/12/03 14:32:21;;;;;;;52.08;23.20;;;;;;;;;;6243861;23;20379;-65
2022/12/03 14:34:48;;;;;;;49.17;23.13;;;;;;;;;;6242693;23;20011;-65
2022/12/03 14:37:14;;;;;;;50.05;23.70;;;;;;;;;;6243569;23;20000;-65
2022/12/03 14:39:40;;;;;;;54.42;24.30;;;;;;;;;;6243569;23;20098;-65
2022/12/03 14:42:12;;;;;;;51.72;23.95;;;;;;;;;;6242965;23;20007;-65
2022/12/03 14:44:39;;;;;;;53.53;24.63;;;;;;;;;;6243600;23;20031;-65
2022/12/03 14:47:05;;;;;;;56.03;24.83;;;;;;;;;;6243099;23;20008;-65
2022/12/03 14:49:31;;;;;;;49.28;22.80;;;;;;;;;;6242372;23;20030;-65